Time,TemperatureF,DewpointF,PressureIn,WindDirection,WindDirectionDegrees,WindSpeedMPH,WindSpeedGustMPH,Humidity,HourlyPrecipIn,Conditions,Clouds,dailyrainin,SoftwareType,DateUTC
2013-08-18 00:00:00,75.0,67.3,29.92,East,81,0.0,2.0,77,0.00,CLR,,0.00,WeatherDisplay:10.37,2013-08-17 22:00:00,
2013-08-18 00:05:00,75.0,67.3,29.92,ENE,58,0.0,0.0,77,0.00,CLR,,0.00,WeatherDisplay:10.37,2013-08-17 22:05:00,
2013-08-18 00:10:00,75.0,67.3,29.92,NE,45,0.0,0.0,77,0.00,CLR,,0.00,WeatherDisplay:10.37,2013-08-17 22:10:00,
2013-08-18 00:15:00,74.7,67.0,29.92,NE,36,0.0,2.0,77,0.00,CLR,,0.00,WeatherDisplay:10.37,2013-08-17 22:15:00,
2013-08-18 00:20:00,74.7,67.0,29.92,NNE,13,0.0,2.0,77,0.00,CLR,,0.00,WeatherDisplay:10.37,2013-08-17 22:20:00,
2013-08-18 00:25:00,74.7,67.0,29.92,North,0,0.0,2.0,77,0.00,CLR,,0.00,WeatherDisplay:10.37,2013-08-17 22:25:00,
2013-08-18 00:30:00,74.5,66.8,29.92,NNE,14,0.0,2.0,77,0.00,CLR,,0.00,WeatherDisplay:10.37,2013-08-17 22:30:00,
2013-08-18 00:35:00,74.5,66.8,29.92,ENE,67,0.0,2.0,77,0.00,CLR,,0.00,WeatherDisplay:10.37,2013-08-17 22:35:00,
2013-08-18 00:40:00,74.5,66.8,29.92,East,90,0.0,2.0,77,0.00,CLR,,0.00,WeatherDisplay:10.37,2013-08-17 22:40:00,
2013-08-18 00:45:00,74.1,66.8,29.92,East,85,1.0,2.0,78,0.00,CLR,,0.00,WeatherDisplay:10.37,2013-08-17 22:45:00,
2013-08-18 00:50:00,74.1,66.8,29.92,ENE,64,1.0,2.0,78,0.00,CLR,,0.00,WeatherDisplay:10.37,2013-08-17 22:50:00,
2013-08-18 00:55:00,74.1,66.8,29.92,NE,45,1.0,2.0,78,0.00,CLR,,0.00,WeatherDisplay:10.37,2013-08-17 22:55:00,
2013-08-18 01:00:00,73.8,66.5,29.91,ENE,61,1.0,4.0,78,0.00,CLR,,0.00,WeatherDisplay:10.37,2013-08-17 23:00:00,
2013-08-18 01:05:00,73.8,66.5,29.91,East,83,1.0,4.0,78,0.00,CLR,,0.00,WeatherDisplay:10.37,2013-08-17 23:05:00,
2013-08-18 01:10:00,73.8,66.5,29.91,East,90,1.0,4.0,78,0.00,CLR,,0.00,WeatherDisplay:10.37,2013-08-17 23:10:00,
2013-08-18 01:15:00,73.4,66.5,29.92,East,86,1.0,4.0,79,0.00,CLR,,0.00,WeatherDisplay:10.37,2013-08-17 23:15:00,
2013-08-18 01:20:00,73.4,66.5,29.92,ENE,68,1.0,2.0,79,0.00,CLR,,0.00,WeatherDisplay:10.37,2013-08-17 23:20:00,
2013-08-18 01:25:00,73.4,66.5,29.92,NE,45,1.0,2.0,79,0.00,CLR,,0.00,WeatherDisplay:10.37,2013-08-17 23:25:00,
2013-08-18 01:30:00,73.2,66.7,29.91,ENE,61,1.0,2.0,80,0.00,CLR,,0.00,WeatherDisplay:10.37,2013-08-17 23:30:00,
2013-08-18 01:35:00,73.2,66.7,29.91,East,83,1.0,2.0,80,0.00,CLR,,0.00,WeatherDisplay:10.37,2013-08-17 23:35:00,
2013-08-18 01:40:00,73.2,66.7,29.91,East,90,1.0,2.0,80,0.00,CLR,,0.00,WeatherDisplay:10.37,2013-08-17 23:40:00,
2013-08-18 01:45:00,72.9,66.3,29.92,East,90,0.0,2.0,80,0.00,CLR,,0.00,WeatherDisplay:10.37,2013-08-17 23:45:00,
2013-08-18 01:50:00,72.9,66.3,29.92,East,90,0.0,2.0,80,0.00,CLR,,0.00,WeatherDisplay:10.37,2013-08-17 23:50:00,
2013-08-18 01:55:00,72.9,66.3,29.92,East,90,0.0,2.0,80,0.00,CLR,,0.00,WeatherDisplay:10.37,2013-08-17 23:55:00,
2013-08-18 02:00:00,72.5,66.0,29.92,East,90,0.0,2.0,80,0.00,CLR,,0.00,WeatherDisplay:10.37,2013-08-18 00:00:00,
2013-08-18 02:05:00,72.5,66.0,29.92,East,90,0.0,2.0,80,0.00,CLR,,0.00,WeatherDisplay:10.37,2013-08-18 00:05:00,
2013-08-18 02:10:00,72.5,66.0,29.92,East,90,0.0,2.0,80,0.00,CLR,,0.00,WeatherDisplay:10.37,2013-08-18 00:10:00,
2013-08-18 02:15:00,72.5,66.3,29.92,East,90,1.0,2.0,81,0.00,CLR,,0.00,WeatherDisplay:10.37,2013-08-18 00:15:00,
2013-08-18 02:20:00,72.5,66.3,29.92,East,90,1.0,2.0,81,0.00,CLR,,0.00,WeatherDisplay:10.37,2013-08-18 00:20:00,
2013-08-18 02:25:00,72.5,66.3,29.92,East,90,1.0,2.0,81,0.00,CLR,,0.00,WeatherDisplay:10.37,2013-08-18 00:25:00,
2013-08-18 02:30:00,72.7,66.5,29.93,East,90,0.0,2.0,81,0.00,CLR,,0.00,WeatherDisplay:10.37,2013-08-18 00:30:00,
2013-08-18 02:35:00,72.7,66.5,29.93,East,90,0.0,2.0,81,0.00,CLR,,0.00,WeatherDisplay:10.37,2013-08-18 00:35:00,
2013-08-18 02:40:00,72.7,66.5,29.93,East,90,0.0,2.0,81,0.00,CLR,,0.00,WeatherDisplay:10.37,2013-08-18 00:40:00,
2013-08-18 02:45:00,72.7,66.5,29.92,ENE,78,0.0,2.0,81,0.00,CLR,,0.00,WeatherDisplay:10.37,2013-08-18 00:45:00,
2013-08-18 02:50:00,72.7,66.5,29.92,NNW,339,0.0,1.0,81,0.00,CLR,,0.00,WeatherDisplay:10.37,2013-08-18 00:50:00,
2013-08-18 02:55:00,72.7,66.5,29.92,NW,315,0.0,1.0,81,0.00,CLR,,0.00,WeatherDisplay:10.37,2013-08-18 00:55:00,
2013-08-18 03:00:00,72.5,66.3,29.93,NNW,327,0.0,2.0,81,0.00,CLR,,0.00,WeatherDisplay:10.37,2013-08-18 01:00:00,
2013-08-18 03:05:00,72.5,66.3,29.93,ENE,66,0.0,2.0,81,0.00,CLR,,0.00,WeatherDisplay:10.37,2013-08-18 01:05:00,
2013-08-18 03:10:00,72.5,66.3,29.93,East,90,0.0,2.0,81,0.00,CLR,,0.00,WeatherDisplay:10.37,2013-08-18 01:10:00,
2013-08-18 03:15:00,72.9,66.7,29.93,East,90,0.0,2.0,81,0.00,CLR,,0.00,WeatherDisplay:10.37,2013-08-18 01:15:00,
2013-08-18 03:20:00,72.9,66.7,29.93,East,90,0.0,2.0,81,0.00,CLR,,0.00,WeatherDisplay:10.37,2013-08-18 01:20:00,
2013-08-18 03:25:00,72.9,66.7,29.93,East,90,0.0,2.0,81,0.00,CLR,,0.00,WeatherDisplay:10.37,2013-08-18 01:25:00,
2013-08-18 03:30:00,73.6,67.4,29.94,East,90,1.0,2.0,81,0.00,CLR,,0.00,WeatherDisplay:10.37,2013-08-18 01:30:00,
2013-08-18 03:35:00,73.6,67.4,29.94,East,90,1.0,2.0,81,0.00,CLR,,0.00,WeatherDisplay:10.37,2013-08-18 01:35:00,
2013-08-18 03:40:00,73.6,67.4,29.94,East,90,1.0,2.0,81,0.00,CLR,,0.00,WeatherDisplay:10.37,2013-08-18 01:40:00,
2013-08-18 03:45:00,74.3,67.7,29.94,ENE,77,0.0,2.0,80,0.00,CLR,,0.00,WeatherDisplay:10.37,2013-08-18 01:45:00,
2013-08-18 03:50:00,74.3,67.7,29.94,NE,54,0.0,2.0,80,0.00,CLR,,0.00,WeatherDisplay:10.37,2013-08-18 01:50:00,
2013-08-18 03:55:00,74.3,67.7,29.94,NE,45,0.0,2.0,80,0.00,CLR,,0.00,WeatherDisplay:10.37,2013-08-18 01:55:00,
2013-08-18 04:00:00,75.4,68.4,29.94,NE,52,1.0,2.0,79,0.00,CLR,,0.00,WeatherDisplay:10.37,2013-08-18 02:00:00,
2013-08-18 04:05:00,75.4,68.4,29.94,East,84,1.0,2.0,79,0.00,CLR,,0.00,WeatherDisplay:10.37,2013-08-18 02:05:00,
2013-08-18 04:10:00,75.4,68.4,29.94,ESE,112,1.0,2.0,79,0.00,CLR,,0.00,WeatherDisplay:10.37,2013-08-18 02:10:00,
2013-08-18 04:15:00,76.3,68.9,29.94,East,87,0.0,2.0,78,0.00,CLR,,0.00,WeatherDisplay:10.37,2013-08-18 02:15:00,
2013-08-18 04:20:00,76.3,68.9,29.94,NNE,14,0.0,1.0,78,0.00,CLR,,0.00,WeatherDisplay:10.37,2013-08-18 02:20:00,
2013-08-18 04:25:00,76.3,68.9,29.94,North,0,0.0,1.0,78,0.00,CLR,,0.00,WeatherDisplay:10.37,2013-08-18 02:25:00,
2013-08-18 04:30:00,77.5,70.1,29.95,North,0,0.0,2.0,78,0.00,CLR,,0.00,WeatherDisplay:10.37,2013-08-18 02:30:00,
2013-08-18 04:35:00,77.5,70.1,29.95,North,0,0.0,2.0,78,0.00,CLR,,0.00,WeatherDisplay:10.37,2013-08-18 02:35:00,
2013-08-18 04:40:00,77.5,70.1,29.95,North,0,0.0,2.0,78,0.00,CLR,,0.00,WeatherDisplay:10.37,2013-08-18 02:40:00,
2013-08-18 04:45:00,78.6,70.8,29.95,North,0,0.0,2.0,77,0.00,CLR,,0.00,WeatherDisplay:10.37,2013-08-18 02:45:00,
2013-08-18 04:50:00,78.6,70.8,29.95,North,0,0.0,2.0,77,0.00,CLR,,0.00,WeatherDisplay:10.37,2013-08-18 02:50:00,
2013-08-18 04:55:00,78.6,70.8,29.95,North,0,0.0,2.0,77,0.00,CLR,,0.00,WeatherDisplay:10.37,2013-08-18 02:55:00,
2013-08-18 05:00:00,79.7,71.1,29.95,North,11,1.0,4.0,75,0.00,CLR,,0.00,WeatherDisplay:10.37,2013-08-18 03:00:00,
2013-08-18 05:05:00,79.7,71.1,29.95,NE,35,1.0,4.0,75,0.00,CLR,,0.00,WeatherDisplay:10.37,2013-08-18 03:05:00,
2013-08-18 05:10:00,79.7,71.1,29.95,NE,45,1.0,4.0,75,0.00,CLR,,0.00,WeatherDisplay:10.37,2013-08-18 03:10:00,
2013-08-18 05:15:00,80.4,71.4,29.95,NE,54,1.0,4.0,74,0.00,CLR,,0.00,WeatherDisplay:10.37,2013-08-18 03:15:00,
2013-08-18 05:20:00,80.4,71.4,29.95,ENE,77,1.0,3.0,74,0.00,CLR,,0.00,WeatherDisplay:10.37,2013-08-18 03:20:00,
2013-08-18 05:25:00,80.4,71.4,29.95,East,90,1.0,3.0,74,0.00,CLR,,0.00,WeatherDisplay:10.37,2013-08-18 03:25:00,
2013-08-18 05:30:00,81.3,72.2,29.95,East,90,0.0,3.0,74,0.00,CLR,,0.00,WeatherDisplay:10.37,2013-08-18 03:30:00,
2013-08-18 05:35:00,81.3,72.2,29.95,West,270,0.0,2.0,74,0.00,CLR,,0.00,WeatherDisplay:10.37,2013-08-18 03:35:00,
2013-08-18 05:40:00,81.3,72.2,29.95,West,270,0.0,2.0,74,0.00,CLR,,0.00,WeatherDisplay:10.37,2013-08-18 03:40:00,
2013-08-18 05:45:00,82.2,72.7,29.95,West,270,1.0,3.0,73,0.00,CLR,,0.00,WeatherDisplay:10.37,2013-08-18 03:45:00,
2013-08-18 05:50:00,82.2,72.7,29.95,East,90,1.0,3.0,73,0.00,CLR,,0.00,WeatherDisplay:10.37,2013-08-18 03:50:00,
2013-08-18 05:55:00,82.2,72.7,29.95,East,90,1.0,3.0,73,0.00,CLR,,0.00,WeatherDisplay:10.37,2013-08-18 03:55:00,
2013-08-18 06:00:00,83.3,73.3,29.95,ENE,78,1.0,3.0,72,0.00,CLR,,0.00,WeatherDisplay:10.37,2013-08-18 04:00:00,
2013-08-18 06:05:00,83.3,73.3,29.95,NNW,339,1.0,2.0,72,0.00,CLR,,0.00,WeatherDisplay:10.37,2013-08-18 04:05:00,
2013-08-18 06:10:00,83.3,73.3,29.95,NW,315,1.0,2.0,72,0.00,CLR,,0.00,WeatherDisplay:10.37,2013-08-18 04:10:00,
2013-08-18 06:15:00,84.4,73.9,29.95,NNW,329,1.0,2.0,71,0.00,CLR,,0.00,WeatherDisplay:10.37,2013-08-18 04:15:00,
2013-08-18 06:20:00,84.4,73.9,29.95,NNE,22,1.0,2.0,71,0.00,CLR,,0.00,WeatherDisplay:10.37,2013-08-18 04:20:00,
2013-08-18 06:25:00,84.4,73.9,29.95,NE,45,1.0,2.0,71,0.00,CLR,,0.00,WeatherDisplay:10.37,2013-08-18 04:25:00,
2013-08-18 06:30:00,85.6,74.3,29.95,ENE,57,1.0,4.0,69,0.00,CLR,,0.00,WeatherDisplay:10.37,2013-08-18 04:30:00,
2013-08-18 06:35:00,85.6,74.3,29.95,SSE,156,1.0,4.0,69,0.00,CLR,,0.00,WeatherDisplay:10.37,2013-08-18 04:35:00,
2013-08-18 06:40:00,85.6,74.3,29.95,South,180,1.0,4.0,69,0.00,CLR,,0.00,WeatherDisplay:10.37,2013-08-18 04:40:00,
2013-08-18 06:45:00,86.5,74.7,29.95,SW,235,2.0,5.0,68,0.00,CLR,,0.00,WeatherDisplay:10.37,2013-08-18 04:45:00,
2013-08-18 06:50:00,86.5,74.7,29.95,NW,309,2.0,5.0,68,0.00,CLR,,0.00,WeatherDisplay:10.37,2013-08-18 04:50:00,
2013-08-18 06:55:00,86.5,74.7,29.95,NW,315,2.0,5.0,68,0.00,CLR,,0.00,WeatherDisplay:10.37,2013-08-18 04:55:00,
2013-08-18 07:00:00,86.9,74.2,29.95,NW,319,1.0,5.0,66,0.00,CLR,,0.00,WeatherDisplay:10.37,2013-08-18 05:00:00,
2013-08-18 07:05:00,86.9,74.2,29.95,North,350,1.0,2.0,66,0.00,CLR,,0.00,WeatherDisplay:10.37,2013-08-18 05:05:00,
2013-08-18 07:10:00,86.9,74.2,29.95,NE,45,1.0,2.0,66,0.00,CLR,,0.00,WeatherDisplay:10.37,2013-08-18 05:10:00,
2013-08-18 07:15:00,87.3,73.6,29.95,NE,45,1.0,2.0,64,0.00,CLR,,0.00,WeatherDisplay:10.37,2013-08-18 05:15:00,
2013-08-18 07:20:00,87.3,73.6,29.95,NE,45,1.0,2.0,64,0.00,CLR,,0.00,WeatherDisplay:10.37,2013-08-18 05:20:00,
2013-08-18 07:25:00,87.3,73.6,29.95,NE,45,1.0,2.0,64,0.00,CLR,,0.00,WeatherDisplay:10.37,2013-08-18 05:25:00,
2013-08-18 07:30:00,88.2,74.9,29.95,NE,45,2.0,6.0,65,0.00,CLR,,0.00,WeatherDisplay:10.37,2013-08-18 05:30:00,
2013-08-18 07:35:00,88.2,74.9,29.95,SW,225,2.0,6.0,65,0.00,CLR,,0.00,WeatherDisplay:10.37,2013-08-18 05:35:00,
2013-08-18 07:40:00,88.2,74.9,29.95,SW,225,2.0,6.0,65,0.00,CLR,,0.00,WeatherDisplay:10.37,2013-08-18 05:40:00,
2013-08-18 07:45:00,89.1,74.8,29.95,SSW,202,3.0,6.0,63,0.00,CLR,,0.00,WeatherDisplay:10.37,2013-08-18 05:45:00,
2013-08-18 07:50:00,89.1,74.8,29.95,SSE,149,3.0,6.0,63,0.00,CLR,,0.00,WeatherDisplay:10.37,2013-08-18 05:50:00,
2013-08-18 07:55:00,89.1,74.8,29.95,SE,135,3.0,6.0,63,0.00,CLR,,0.00,WeatherDisplay:10.37,2013-08-18 05:55:00,
2013-08-18 08:00:00,88.9,74.2,29.94,SSE,149,5.0,11.0,62,0.00,CLR,,0.00,WeatherDisplay:10.37,2013-08-18 06:00:00,
2013-08-18 08:05:00,88.9,74.2,29.94,South,186,5.0,11.0,62,0.00,CLR,,0.00,WeatherDisplay:10.37,2013-08-18 06:05:00,
2013-08-18 08:10:00,88.9,74.2,29.94,SSW,202,5.0,11.0,62,0.00,CLR,,0.00,WeatherDisplay:10.37,2013-08-18 06:10:00,
2013-08-18 08:15:00,88.5,74.3,29.94,SSW,197,2.0,11.0,63,0.00,CLR,,0.00,WeatherDisplay:10.37,2013-08-18 06:15:00,
2013-08-18 08:20:00,88.5,74.3,29.94,South,178,2.0,4.0,63,0.00,CLR,,0.00,WeatherDisplay:10.37,2013-08-18 06:20:00,
2013-08-18 08:25:00,88.5,74.3,29.94,SSE,158,2.0,4.0,63,0.00,CLR,,0.00,WeatherDisplay:10.37,2013-08-18 06:25:00,
2013-08-18 08:30:00,88.5,74.8,29.94,South,177,3.0,4.0,64,0.00,CLR,,0.00,WeatherDisplay:10.37,2013-08-18 06:30:00,
2013-08-18 08:35:00,88.5,74.8,29.94,SW,231,3.0,4.0,64,0.00,CLR,,0.00,WeatherDisplay:10.37,2013-08-18 06:35:00,
2013-08-18 08:40:00,88.5,74.8,29.94,WSW,248,3.0,4.0,64,0.00,CLR,,0.00,WeatherDisplay:10.37,2013-08-18 06:40:00,
2013-08-18 08:45:00,88.0,73.3,29.94,WSW,245,2.0,4.0,62,0.00,CLR,,0.00,WeatherDisplay:10.37,2013-08-18 06:45:00,
2013-08-18 08:50:00,88.0,73.3,29.94,SW,234,2.0,4.0,62,0.00,CLR,,0.00,WeatherDisplay:10.37,2013-08-18 06:50:00,
2013-08-18 08:55:00,88.0,73.3,29.94,SW,225,2.0,4.0,62,0.00,CLR,,0.00,WeatherDisplay:10.37,2013-08-18 06:55:00,
2013-08-18 09:00:00,88.9,73.7,29.94,SSW,206,3.0,6.0,61,0.00,CLR,,0.00,WeatherDisplay:10.37,2013-08-18 07:00:00,
2013-08-18 09:05:00,88.9,73.7,29.94,SSE,152,3.0,6.0,61,0.00,CLR,,0.00,WeatherDisplay:10.37,2013-08-18 07:05:00,
2013-08-18 09:10:00,88.9,73.7,29.94,SE,135,3.0,6.0,61,0.00,CLR,,0.00,WeatherDisplay:10.37,2013-08-18 07:10:00,
2013-08-18 09:15:00,89.1,72.4,29.93,SSE,152,3.0,8.0,58,0.00,CLR,,0.00,WeatherDisplay:10.37,2013-08-18 07:15:00,
2013-08-18 09:20:00,89.1,72.4,29.93,SSW,206,3.0,8.0,58,0.00,CLR,,0.00,WeatherDisplay:10.37,2013-08-18 07:20:00,
2013-08-18 09:25:00,89.1,72.4,29.93,SW,225,3.0,8.0,58,0.00,CLR,,0.00,WeatherDisplay:10.37,2013-08-18 07:25:00,
2013-08-18 09:30:00,89.6,71.8,29.94,SW,225,3.0,8.0,56,0.00,CLR,,0.00,WeatherDisplay:10.37,2013-08-18 07:30:00,
2013-08-18 09:35:00,89.6,71.8,29.94,SW,225,3.0,5.0,56,0.00,CLR,,0.00,WeatherDisplay:10.37,2013-08-18 07:35:00,
2013-08-18 09:40:00,89.6,71.8,29.94,SW,225,3.0,5.0,56,0.00,CLR,,0.00,WeatherDisplay:10.37,2013-08-18 07:40:00,
2013-08-18 09:45:00,89.6,71.3,29.93,SW,225,3.0,6.0,55,0.00,CLR,,0.00,WeatherDisplay:10.37,2013-08-18 07:45:00,
2013-08-18 09:50:00,89.6,71.3,29.93,SW,225,3.0,6.0,55,0.00,CLR,,0.00,WeatherDisplay:10.37,2013-08-18 07:50:00,
2013-08-18 09:55:00,89.6,71.3,29.93,SW,225,3.0,6.0,55,0.00,CLR,,0.00,WeatherDisplay:10.37,2013-08-18 07:55:00,
2013-08-18 10:00:00,90.1,71.2,29.94,SW,225,2.0,7.0,54,0.00,CLR,,0.00,WeatherDisplay:10.37,2013-08-18 08:00:00,
2013-08-18 10:05:00,90.1,71.2,29.94,SW,225,2.0,7.0,54,0.00,CLR,,0.00,WeatherDisplay:10.37,2013-08-18 08:05:00,
2013-08-18 10:10:00,90.1,71.2,29.94,SW,225,2.0,7.0,54,0.00,CLR,,0.00,WeatherDisplay:10.37,2013-08-18 08:10:00,
2013-08-18 10:15:00,90.1,72.3,29.93,SSW,211,2.0,7.0,56,0.00,CLR,,0.00,WeatherDisplay:10.37,2013-08-18 08:15:00,
2013-08-18 10:20:00,90.1,72.3,29.93,SE,137,2.0,6.0,56,0.00,CLR,,0.00,WeatherDisplay:10.37,2013-08-18 08:20:00,
2013-08-18 10:25:00,90.1,72.3,29.93,ESE,112,2.0,6.0,56,0.00,CLR,,0.00,WeatherDisplay:10.37,2013-08-18 08:25:00,
2013-08-18 10:30:00,90.0,73.2,29.93,ESE,105,2.0,6.0,58,0.00,CLR,,0.00,WeatherDisplay:10.37,2013-08-18 08:30:00,
2013-08-18 10:35:00,90.0,73.2,29.93,NNW,330,2.0,4.0,58,0.00,CLR,,0.00,WeatherDisplay:10.37,2013-08-18 08:35:00,
2013-08-18 10:40:00,90.0,73.2,29.93,NW,315,2.0,4.0,58,0.00,CLR,,0.00,WeatherDisplay:10.37,2013-08-18 08:40:00,
2013-08-18 10:45:00,90.0,73.7,29.93,NNW,344,5.0,9.0,59,0.00,CLR,,0.00,WeatherDisplay:10.37,2013-08-18 08:45:00,
2013-08-18 10:50:00,90.0,73.7,29.93,East,80,5.0,9.0,59,0.00,CLR,,0.00,WeatherDisplay:10.37,2013-08-18 08:50:00,
2013-08-18 10:55:00,90.0,73.7,29.93,East,90,5.0,9.0,59,0.00,CLR,,0.00,WeatherDisplay:10.37,2013-08-18 08:55:00,
2013-08-18 11:00:00,90.5,73.7,29.93,East,100,3.0,9.0,58,0.00,CLR,,0.00,WeatherDisplay:10.37,2013-08-18 09:00:00,
2013-08-18 11:05:00,90.5,73.7,29.93,SSE,149,3.0,8.0,58,0.00,CLR,,0.00,WeatherDisplay:10.37,2013-08-18 09:05:00,
2013-08-18 11:10:00,90.5,73.7,29.93,South,180,3.0,8.0,58,0.00,CLR,,0.00,WeatherDisplay:10.37,2013-08-18 09:10:00,
2013-08-18 11:15:00,90.7,73.9,29.92,South,186,2.0,8.0,58,0.00,CLR,,0.00,WeatherDisplay:10.37,2013-08-18 09:15:00,
2013-08-18 11:20:00,90.7,73.9,29.92,SSW,208,2.0,7.0,58,0.00,CLR,,0.00,WeatherDisplay:10.37,2013-08-18 09:20:00,
2013-08-18 11:25:00,90.7,73.9,29.92,SW,225,2.0,7.0,58,0.00,CLR,,0.00,WeatherDisplay:10.37,2013-08-18 09:25:00,
2013-08-18 11:30:00,90.7,73.9,29.92,SW,234,2.0,7.0,58,0.00,CLR,,0.00,WeatherDisplay:10.37,2013-08-18 09:30:00,
2013-08-18 11:35:00,90.7,73.9,29.92,WSW,257,2.0,5.0,58,0.00,CLR,,0.00,WeatherDisplay:10.37,2013-08-18 09:35:00,
2013-08-18 11:40:00,90.7,73.9,29.92,West,270,2.0,5.0,58,0.00,CLR,,0.00,WeatherDisplay:10.37,2013-08-18 09:40:00,
2013-08-18 11:45:00,90.7,73.4,29.92,West,270,3.0,7.0,57,0.00,CLR,,0.00,WeatherDisplay:10.37,2013-08-18 09:45:00,
2013-08-18 11:50:00,90.7,73.4,29.92,East,90,3.0,7.0,57,0.00,CLR,,0.00,WeatherDisplay:10.37,2013-08-18 09:50:00,
2013-08-18 11:55:00,90.7,73.4,29.92,East,90,3.0,7.0,57,0.00,CLR,,0.00,WeatherDisplay:10.37,2013-08-18 09:55:00,
2013-08-18 12:00:00,91.0,74.2,29.92,East,90,6.0,9.0,58,0.00,CLR,,0.00,WeatherDisplay:10.37,2013-08-18 10:00:00,
2013-08-18 12:05:00,91.0,74.2,29.92,West,270,6.0,9.0,58,0.00,CLR,,0.00,WeatherDisplay:10.37,2013-08-18 10:05:00,
2013-08-18 12:10:00,91.0,74.2,29.92,West,270,6.0,9.0,58,0.00,CLR,,0.00,WeatherDisplay:10.37,2013-08-18 10:10:00,
2013-08-18 12:15:00,90.9,73.5,29.91,West,268,0.0,9.0,57,0.00,CLR,,0.00,WeatherDisplay:10.37,2013-08-18 10:15:00,
2013-08-18 12:20:00,90.9,73.5,29.91,WSW,255,0.0,1.0,57,0.00,CLR,,0.00,WeatherDisplay:10.37,2013-08-18 10:20:00,
2013-08-18 12:25:00,90.9,73.5,29.91,SW,225,0.0,1.0,57,0.00,CLR,,0.00,WeatherDisplay:10.37,2013-08-18 10:25:00,
2013-08-18 12:30:00,91.0,72.6,29.91,SW,230,1.0,3.0,55,0.00,CLR,,0.00,WeatherDisplay:10.37,2013-08-18 10:30:00,
2013-08-18 12:35:00,91.0,72.6,29.91,WSW,251,1.0,3.0,55,0.00,CLR,,0.00,WeatherDisplay:10.37,2013-08-18 10:35:00,
2013-08-18 12:40:00,91.0,72.6,29.91,West,270,1.0,3.0,55,0.00,CLR,,0.00,WeatherDisplay:10.37,2013-08-18 10:40:00,
2013-08-18 12:45:00,91.2,71.7,29.91,WSW,256,5.0,7.0,53,0.00,CLR,,0.00,WeatherDisplay:10.37,2013-08-18 10:45:00,
2013-08-18 12:50:00,91.2,71.7,29.91,WSW,249,5.0,7.0,53,0.00,CLR,,0.00,WeatherDisplay:10.37,2013-08-18 10:50:00,
2013-08-18 12:55:00,91.2,71.7,29.91,WSW,248,5.0,7.0,53,0.00,CLR,,0.00,WeatherDisplay:10.37,2013-08-18 10:55:00,
2013-08-18 13:00:00,90.3,70.9,29.91,WSW,252,1.0,7.0,53,0.00,CLR,,0.00,WeatherDisplay:10.37,2013-08-18 11:00:00,
2013-08-18 13:05:00,90.3,70.9,29.91,West,278,1.0,4.0,53,0.00,CLR,,0.00,WeatherDisplay:10.37,2013-08-18 11:05:00,
2013-08-18 13:10:00,90.3,70.9,29.91,NW,315,1.0,4.0,53,0.00,CLR,,0.00,WeatherDisplay:10.37,2013-08-18 11:10:00,
2013-08-18 13:15:00,89.8,70.4,29.91,WNW,296,5.0,7.0,53,0.00,CLR,,0.00,WeatherDisplay:10.37,2013-08-18 11:15:00,
2013-08-18 13:20:00,89.8,70.4,29.91,West,275,5.0,7.0,53,0.00,CLR,,0.00,WeatherDisplay:10.37,2013-08-18 11:20:00,
2013-08-18 13:25:00,89.8,70.4,29.91,West,270,5.0,7.0,53,0.00,CLR,,0.00,WeatherDisplay:10.37,2013-08-18 11:25:00,
2013-08-18 13:30:00,89.6,70.2,29.90,West,264,3.0,7.0,53,0.00,CLR,,0.00,WeatherDisplay:10.37,2013-08-18 11:30:00,
2013-08-18 14:45:00,87.6,69.5,29.90,WNW,287,5.0,6.0,55,0.00,CLR,,0.00,WeatherDisplay:10.37,2013-08-18 12:45:00,
2013-08-18 14:50:00,87.6,69.5,29.90,West,280,5.0,6.0,55,0.00,CLR,,0.00,WeatherDisplay:10.37,2013-08-18 12:50:00,
2013-08-18 14:55:00,87.6,69.5,29.90,West,270,5.0,6.0,55,0.00,CLR,,0.00,WeatherDisplay:10.37,2013-08-18 12:55:00,
2013-08-18 15:00:00,86.5,68.5,29.90,West,270,5.0,8.0,55,0.00,CLR,,0.00,WeatherDisplay:10.37,2013-08-18 13:00:00,
2013-08-18 15:05:00,86.5,68.5,29.90,West,270,5.0,8.0,55,0.00,CLR,,0.00,WeatherDisplay:10.37,2013-08-18 13:05:00,
2013-08-18 15:10:00,86.5,68.5,29.90,West,270,5.0,8.0,55,0.00,CLR,,0.00,WeatherDisplay:10.37,2013-08-18 13:10:00,
2013-08-18 15:15:00,85.6,69.2,29.90,West,276,3.0,8.0,58,0.00,CLR,,0.00,WeatherDisplay:10.37,2013-08-18 13:15:00,
2013-08-18 15:20:00,85.6,69.2,29.90,WNW,298,3.0,6.0,58,0.00,CLR,,0.00,WeatherDisplay:10.37,2013-08-18 13:20:00,
2013-08-18 15:25:00,85.6,69.2,29.90,NW,315,3.0,6.0,58,0.00,CLR,,0.00,WeatherDisplay:10.37,2013-08-18 13:25:00,
2013-08-18 15:30:00,84.4,69.5,29.91,NW,315,3.0,6.0,61,0.00,CLR,,0.00,WeatherDisplay:10.37,2013-08-18 13:30:00,
2013-08-18 15:35:00,84.4,69.5,29.91,NW,315,3.0,5.0,61,0.00,CLR,,0.00,WeatherDisplay:10.37,2013-08-18 13:35:00,
2013-08-18 15:40:00,84.4,69.5,29.91,NW,315,3.0,5.0,61,0.00,CLR,,0.00,WeatherDisplay:10.37,2013-08-18 13:40:00,
2013-08-18 15:45:00,83.5,70.0,29.91,NW,305,5.0,8.0,64,0.00,CLR,,0.00,WeatherDisplay:10.37,2013-08-18 13:45:00,
2013-08-18 15:50:00,83.5,70.0,29.91,WNW,282,5.0,8.0,64,0.00,CLR,,0.00,WeatherDisplay:10.37,2013-08-18 13:50:00,
2013-08-18 15:55:00,83.5,70.0,29.91,West,270,5.0,8.0,64,0.00,CLR,,0.00,WeatherDisplay:10.37,2013-08-18 13:55:00,
2013-08-18 16:00:00,82.4,70.8,29.91,West,270,3.0,8.0,68,0.00,CLR,,0.00,WeatherDisplay:10.37,2013-08-18 14:00:00,
2013-08-18 16:05:00,82.4,70.8,29.91,West,270,3.0,8.0,68,0.00,CLR,,0.00,WeatherDisplay:10.37,2013-08-18 14:05:00,
2013-08-18 16:10:00,82.4,70.8,29.91,West,270,3.0,8.0,68,0.00,CLR,,0.00,WeatherDisplay:10.37,2013-08-18 14:10:00,
2013-08-18 16:15:00,81.5,71.6,29.91,West,270,5.0,8.0,72,0.00,CLR,,0.00,WeatherDisplay:10.37,2013-08-18 14:15:00,
2013-08-18 16:20:00,81.5,71.6,29.91,West,270,5.0,8.0,72,0.00,CLR,,0.00,WeatherDisplay:10.37,2013-08-18 14:20:00,
2013-08-18 16:25:00,81.5,71.6,29.91,West,270,5.0,8.0,72,0.00,CLR,,0.00,WeatherDisplay:10.37,2013-08-18 14:25:00,
2013-08-18 16:30:00,80.8,71.7,29.92,West,267,3.0,8.0,74,0.00,CLR,,0.00,WeatherDisplay:10.37,2013-08-18 14:30:00,
2013-08-18 16:35:00,80.8,71.7,29.92,WSW,256,3.0,5.0,74,0.00,CLR,,0.00,WeatherDisplay:10.37,2013-08-18 14:35:00,
2013-08-18 16:40:00,80.8,71.7,29.92,WSW,248,3.0,5.0,74,0.00,CLR,,0.00,WeatherDisplay:10.37,2013-08-18 14:40:00,
2013-08-18 16:45:00,80.6,71.9,29.92,WSW,251,2.0,5.0,75,0.00,CLR,,0.00,WeatherDisplay:10.37,2013-08-18 14:45:00,
2013-08-18 16:50:00,80.6,71.9,29.92,West,262,2.0,4.0,75,0.00,CLR,,0.00,WeatherDisplay:10.37,2013-08-18 14:50:00,
2013-08-18 16:55:00,80.6,71.9,29.92,West,270,2.0,4.0,75,0.00,CLR,,0.00,WeatherDisplay:10.37,2013-08-18 14:55:00,
2013-08-18 17:00:00,80.1,71.8,29.92,West,270,1.0,4.0,76,0.00,CLR,,0.00,WeatherDisplay:10.37,2013-08-18 15:00:00,
2013-08-18 17:05:00,80.1,71.8,29.92,West,270,1.0,3.0,76,0.00,CLR,,0.00,WeatherDisplay:10.37,2013-08-18 15:05:00,
2013-08-18 17:10:00,80.1,71.8,29.92,West,270,1.0,3.0,76,0.00,CLR,,0.00,WeatherDisplay:10.37,2013-08-18 15:10:00,
2013-08-18 17:15:00,79.7,72.2,29.92,West,261,1.0,3.0,78,0.00,CLR,,0.00,WeatherDisplay:10.37,2013-08-18 15:15:00,
2013-08-18 17:20:00,79.7,72.2,29.92,WSW,238,1.0,3.0,78,0.00,CLR,,0.00,WeatherDisplay:10.37,2013-08-18 15:20:00,
2013-08-18 17:25:00,79.7,72.2,29.92,SW,225,1.0,3.0,78,0.00,CLR,,0.00,WeatherDisplay:10.37,2013-08-18 15:25:00,
2013-08-18 17:30:00,79.5,72.1,29.93,WSW,249,3.0,6.0,78,0.00,CLR,,0.00,WeatherDisplay:10.37,2013-08-18 15:30:00,
2013-08-18 17:32:00,89.6,70.2,29.90,West,270,5.8,5.8,53,0.00,CLR,,0.00,WeatherDisplay:10.37,2013-08-18 15:32:00,
2013-08-18 17:33:00,89.6,70.2,29.90,West,270,5.8,5.8,53,0.00,CLR,,0.00,WeatherDisplay:10.37,2013-08-18 15:33:00,
2013-08-18 17:35:00,79.5,72.1,29.93,West,267,3.0,6.0,78,0.00,CLR,,0.00,WeatherDisplay:10.37,2013-08-18 15:35:00,
2013-08-18 17:38:00,89.6,70.2,29.90,East,90,4.6,4.6,53,0.00,CLR,,0.00,WeatherDisplay:10.37,2013-08-18 15:38:00,
2013-08-18 17:40:00,79.5,72.1,29.93,West,270,3.0,6.0,78,0.00,CLR,,0.00,WeatherDisplay:10.37,2013-08-18 15:40:00,
2013-08-18 17:43:00,89.6,70.2,29.90,NW,315,8.1,8.1,53,0.00,CLR,,0.00,WeatherDisplay:10.37,2013-08-18 15:43:00,
2013-08-18 17:45:00,79.3,72.6,29.93,West,270,1.0,6.0,80,0.00,CLR,,0.00,WeatherDisplay:10.37,2013-08-18 15:45:00,
2013-08-18 17:48:00,89.4,70.0,29.90,WNW,292,2.3,3.1,53,0.00,CLR,,0.00,WeatherDisplay:10.37,2013-08-18 15:48:00,
2013-08-18 17:50:00,79.3,72.6,29.93,West,270,1.0,3.0,80,0.00,CLR,,0.00,WeatherDisplay:10.37,2013-08-18 15:50:00,
2013-08-18 17:53:00,89.4,70.0,29.90,West,270,5.8,5.8,53,0.00,CLR,,0.00,WeatherDisplay:10.37,2013-08-18 15:53:00,
2013-08-18 17:55:00,79.3,72.6,29.93,West,270,1.0,3.0,80,0.00,CLR,,0.00,WeatherDisplay:10.37,2013-08-18 15:55:00,
2013-08-18 17:58:00,89.6,70.2,29.90,West,270,6.9,6.9,53,0.00,CLR,,0.00,WeatherDisplay:10.37,2013-08-18 15:58:00,
2013-08-18 18:00:00,79.3,73.0,29.94,West,272,1.0,3.0,81,0.00,CLR,,0.00,WeatherDisplay:10.37,2013-08-18 16:00:00,
2013-08-18 18:03:00,89.4,70.0,29.90,WNW,292,4.6,4.6,53,0.00,CLR,,0.00,WeatherDisplay:10.37,2013-08-18 16:03:00,
2013-08-18 18:05:00,79.3,73.0,29.94,West,281,1.0,2.0,81,0.00,CLR,,0.00,WeatherDisplay:10.37,2013-08-18 16:05:00,
2013-08-18 18:08:00,89.4,70.0,29.90,SW,225,8.1,8.1,53,0.00,CLR,,0.00,WeatherDisplay:10.37,2013-08-18 16:08:00,
2013-08-18 18:10:00,79.3,73.0,29.94,WNW,292,1.0,2.0,81,0.00,CLR,,0.00,WeatherDisplay:10.37,2013-08-18 16:10:00,
2013-08-18 18:13:00,89.1,69.7,29.90,West,270,6.9,6.9,53,0.00,CLR,,0.00,WeatherDisplay:10.37,2013-08-18 16:13:00,
2013-08-18 18:15:00,79.2,73.2,29.94,WNW,288,1.0,2.0,82,0.00,CLR,,0.00,WeatherDisplay:10.37,2013-08-18 16:15:00,
2013-08-18 18:18:00,88.5,69.2,29.90,West,270,9.2,9.2,53,0.00,CLR,,0.00,WeatherDisplay:10.37,2013-08-18 16:18:00,
2013-08-18 18:20:00,79.2,73.2,29.94,West,277,1.0,2.0,82,0.00,CLR,,0.00,WeatherDisplay:10.37,2013-08-18 16:20:00,
2013-08-18 18:23:00,88.2,69.4,29.90,West,270,5.8,5.8,54,0.00,CLR,,0.00,WeatherDisplay:10.37,2013-08-18 16:23:00,
2013-08-18 18:25:00,79.2,73.2,29.94,West,270,1.0,2.0,82,0.00,CLR,,0.00,WeatherDisplay:10.37,2013-08-18 16:25:00,
2013-08-18 18:28:00,88.3,69.6,29.89,NW,315,9.2,9.2,54,0.00,CLR,,0.00,WeatherDisplay:10.37,2013-08-18 16:28:00,
2013-08-18 18:30:00,79.0,73.0,29.94,West,270,0.0,2.0,82,0.00,CLR,,0.00,WeatherDisplay:10.37,2013-08-18 16:30:00,
2013-08-18 18:33:00,88.0,69.3,29.90,West,270,6.9,6.9,54,0.00,CLR,,0.00,WeatherDisplay:10.37,2013-08-18 16:33:00,
2013-08-18 18:35:00,79.0,73.0,29.94,West,270,0.0,0.0,82,0.00,CLR,,0.00,WeatherDisplay:10.37,2013-08-18 16:35:00,
2013-08-18 18:38:00,87.6,68.9,29.89,West,270,6.9,6.9,54,0.00,CLR,,0.00,WeatherDisplay:10.37,2013-08-18 16:38:00,
2013-08-18 18:40:00,79.0,73.0,29.94,West,270,0.0,0.0,82,0.00,CLR,,0.00,WeatherDisplay:10.37,2013-08-18 16:40:00,
2013-08-18 18:43:00,87.6,69.5,29.89,NW,315,5.8,5.8,55,0.00,CLR,,0.00,WeatherDisplay:10.37,2013-08-18 16:43:00,
2013-08-18 18:45:00,78.8,72.8,29.94,West,270,0.0,0.0,82,0.00,CLR,,0.00,WeatherDisplay:10.37,2013-08-18 16:45:00,
2013-08-18 18:50:00,78.8,72.8,29.94,West,270,0.0,0.0,82,0.00,CLR,,0.00,WeatherDisplay:10.37,2013-08-18 16:50:00,
2013-08-18 18:55:00,78.8,72.8,29.94,West,270,0.0,0.0,82,0.00,CLR,,0.00,WeatherDisplay:10.37,2013-08-18 16:55:00,
2013-08-18 19:00:00,78.8,73.2,29.94,West,270,0.0,1.0,83,0.00,CLR,,0.00,WeatherDisplay:10.37,2013-08-18 17:00:00,
2013-08-18 19:05:00,78.8,73.2,29.94,West,270,0.0,1.0,83,0.00,CLR,,0.00,WeatherDisplay:10.37,2013-08-18 17:05:00,
2013-08-18 19:10:00,78.8,73.2,29.94,West,270,0.0,1.0,83,0.00,CLR,,0.00,WeatherDisplay:10.37,2013-08-18 17:10:00,
2013-08-18 19:15:00,78.6,73.0,29.94,West,276,1.0,2.0,83,0.00,CLR,,0.00,WeatherDisplay:10.37,2013-08-18 17:15:00,
2013-08-18 19:20:00,78.6,73.0,29.94,WNW,287,1.0,2.0,83,0.00,CLR,,0.00,WeatherDisplay:10.37,2013-08-18 17:20:00,
2013-08-18 19:25:00,78.6,73.0,29.94,WNW,292,1.0,2.0,83,0.00,CLR,,0.00,WeatherDisplay:10.37,2013-08-18 17:25:00,
2013-08-18 19:30:00,78.6,73.0,29.94,WNW,289,0.0,2.0,83,0.00,CLR,,0.00,WeatherDisplay:10.37,2013-08-18 17:30:00,
2013-08-18 19:35:00,78.6,73.0,29.94,West,278,0.0,2.0,83,0.00,CLR,,0.00,WeatherDisplay:10.37,2013-08-18 17:35:00,
2013-08-18 19:40:00,78.6,73.0,29.94,West,270,0.0,2.0,83,0.00,CLR,,0.00,WeatherDisplay:10.37,2013-08-18 17:40:00,
2013-08-18 19:45:00,78.6,73.0,29.94,West,270,1.0,2.0,83,0.00,CLR,,0.00,WeatherDisplay:10.37,2013-08-18 17:45:00,
2013-08-18 19:50:00,78.6,73.0,29.94,West,270,1.0,2.0,83,0.00,CLR,,0.00,WeatherDisplay:10.37,2013-08-18 17:50:00,
2013-08-18 19:55:00,78.6,73.0,29.94,West,270,1.0,2.0,83,0.00,CLR,,0.00,WeatherDisplay:10.37,2013-08-18 17:55:00,
2013-08-18 20:00:00,78.6,72.7,29.93,WNW,284,1.0,2.0,82,0.00,CLR,,0.00,WeatherDisplay:10.37,2013-08-18 18:00:00,
2013-08-18 20:05:00,78.6,72.7,29.93,NNW,337,1.0,2.0,82,0.00,CLR,,0.00,WeatherDisplay:10.37,2013-08-18 18:05:00,
2013-08-18 20:10:00,78.6,72.7,29.93,North,0,1.0,2.0,82,0.00,CLR,,0.00,WeatherDisplay:10.37,2013-08-18 18:10:00,
2013-08-18 20:15:00,78.4,72.5,29.93,NNE,30,1.0,4.0,82,0.00,CLR,,0.00,WeatherDisplay:10.37,2013-08-18 18:15:00,
2013-08-18 20:20:00,78.4,72.5,29.93,East,80,1.0,4.0,82,0.00,CLR,,0.00,WeatherDisplay:10.37,2013-08-18 18:20:00,
2013-08-18 20:25:00,78.4,72.5,29.93,East,90,1.0,4.0,82,0.00,CLR,,0.00,WeatherDisplay:10.37,2013-08-18 18:25:00,
2013-08-18 20:30:00,77.0,71.1,29.93,East,83,0.0,4.0,82,0.00,CLR,,0.00,WeatherDisplay:10.37,2013-08-18 18:30:00,
2013-08-18 20:35:00,77.0,71.1,29.93,ENE,61,0.0,2.0,82,0.00,CLR,,0.00,WeatherDisplay:10.37,2013-08-18 18:35:00,
2013-08-18 20:40:00,77.0,71.1,29.93,NE,45,0.0,2.0,82,0.00,CLR,,0.00,WeatherDisplay:10.37,2013-08-18 18:40:00,
2013-08-18 20:45:00,76.5,70.9,29.93,NE,50,1.0,2.0,83,0.00,CLR,,0.00,WeatherDisplay:10.37,2013-08-18 18:45:00,
2013-08-18 20:50:00,76.5,70.9,29.93,ENE,71,1.0,2.0,83,0.00,CLR,,0.00,WeatherDisplay:10.37,2013-08-18 18:50:00,
2013-08-18 20:55:00,76.5,70.9,29.93,East,90,1.0,2.0,83,0.00,CLR,,0.00,WeatherDisplay:10.37,2013-08-18 18:55:00,
2013-08-18 21:00:00,76.5,70.9,29.93,East,86,1.0,2.0,83,0.00,CLR,,0.00,WeatherDisplay:10.37,2013-08-18 19:00:00,
2013-08-18 21:05:00,76.5,70.9,29.93,ENE,75,1.0,2.0,83,0.00,CLR,,0.00,WeatherDisplay:10.37,2013-08-18 19:05:00,
2013-08-18 21:10:00,76.5,70.9,29.93,ENE,68,1.0,2.0,83,0.00,CLR,,0.00,WeatherDisplay:10.37,2013-08-18 19:10:00,
2013-08-18 21:15:00,76.1,70.9,29.93,East,80,1.0,2.0,84,0.00,CLR,,0.00,WeatherDisplay:10.37,2013-08-18 19:15:00,
2013-08-18 21:20:00,76.1,70.9,29.93,ESE,116,1.0,2.0,84,0.00,CLR,,0.00,WeatherDisplay:10.37,2013-08-18 19:20:00,
2013-08-18 21:25:00,76.1,70.9,29.93,SE,135,1.0,2.0,84,0.00,CLR,,0.00,WeatherDisplay:10.37,2013-08-18 19:25:00,
2013-08-18 21:30:00,75.9,70.7,29.93,SE,135,0.0,2.0,84,0.00,CLR,,0.00,WeatherDisplay:10.37,2013-08-18 19:30:00,
2013-08-18 21:35:00,75.9,70.7,29.93,SE,135,0.0,1.0,84,0.00,CLR,,0.00,WeatherDisplay:10.37,2013-08-18 19:35:00,
2013-08-18 21:40:00,75.9,70.7,29.93,SE,135,0.0,1.0,84,0.00,CLR,,0.00,WeatherDisplay:10.37,2013-08-18 19:40:00,
2013-08-18 21:45:00,75.6,70.4,29.93,SE,135,0.0,2.0,84,0.00,CLR,,0.00,WeatherDisplay:10.37,2013-08-18 19:45:00,
2013-08-18 21:50:00,75.6,70.4,29.93,SE,135,0.0,2.0,84,0.00,CLR,,0.00,WeatherDisplay:10.37,2013-08-18 19:50:00,
2013-08-18 21:55:00,75.6,70.4,29.93,SE,135,0.0,2.0,84,0.00,CLR,,0.00,WeatherDisplay:10.37,2013-08-18 19:55:00,
2013-08-18 22:00:00,75.6,70.4,29.92,SE,135,0.0,2.0,84,0.00,CLR,,0.00,WeatherDisplay:10.37,2013-08-18 20:00:00,
2013-08-18 22:05:00,75.6,70.4,29.92,SE,135,0.0,1.0,84,0.00,CLR,,0.00,WeatherDisplay:10.37,2013-08-18 20:05:00,
2013-08-18 22:10:00,75.6,70.4,29.92,SE,135,0.0,1.0,84,0.00,CLR,,0.00,WeatherDisplay:10.37,2013-08-18 20:10:00,
2013-08-18 22:15:00,75.6,70.7,29.92,ESE,123,0.0,2.0,85,0.00,CLR,,0.00,WeatherDisplay:10.37,2013-08-18 20:15:00,
2013-08-18 22:20:00,75.6,70.7,29.92,East,87,0.0,2.0,85,0.00,CLR,,0.00,WeatherDisplay:10.37,2013-08-18 20:20:00,
2013-08-18 22:25:00,75.6,70.7,29.92,ENE,68,0.0,2.0,85,0.00,CLR,,0.00,WeatherDisplay:10.37,2013-08-18 20:25:00,
2013-08-18 22:30:00,75.6,70.7,29.92,East,82,0.0,2.0,85,0.00,CLR,,0.00,WeatherDisplay:10.37,2013-08-18 20:30:00,
2013-08-18 22:35:00,75.6,70.7,29.92,SSE,155,0.0,0.0,85,0.00,CLR,,0.00,WeatherDisplay:10.37,2013-08-18 20:35:00,
2013-08-18 22:40:00,75.6,70.7,29.92,South,180,0.0,0.0,85,0.00,CLR,,0.00,WeatherDisplay:10.37,2013-08-18 20:40:00,
2013-08-18 22:45:00,75.4,70.6,29.92,SSE,161,1.0,3.0,85,0.00,CLR,,0.00,WeatherDisplay:10.37,2013-08-18 20:45:00,
2013-08-18 22:50:00,75.4,70.6,29.92,ESE,107,1.0,3.0,85,0.00,CLR,,0.00,WeatherDisplay:10.37,2013-08-18 20:50:00,
2013-08-18 22:55:00,75.4,70.6,29.92,East,90,1.0,3.0,85,0.00,CLR,,0.00,WeatherDisplay:10.37,2013-08-18 20:55:00,
2013-08-18 23:00:00,74.7,69.5,29.92,East,86,1.0,3.0,84,0.00,CLR,,0.00,WeatherDisplay:10.37,2013-08-18 21:00:00,
2013-08-18 23:05:00,74.7,69.5,29.92,ENE,68,1.0,2.0,84,0.00,CLR,,0.00,WeatherDisplay:10.37,2013-08-18 21:05:00,
2013-08-18 23:10:00,74.7,69.5,29.92,NE,45,1.0,2.0,84,0.00,CLR,,0.00,WeatherDisplay:10.37,2013-08-18 21:10:00,
2013-08-18 23:15:00,73.6,68.4,29.92,NE,45,1.0,2.0,84,0.00,CLR,,0.00,WeatherDisplay:10.37,2013-08-18 21:15:00,
2013-08-18 23:20:00,73.6,68.4,29.92,NE,45,1.0,2.0,84,0.00,CLR,,0.00,WeatherDisplay:10.37,2013-08-18 21:20:00,
2013-08-18 23:25:00,73.6,68.4,29.92,NE,45,1.0,2.0,84,0.00,CLR,,0.00,WeatherDisplay:10.37,2013-08-18 21:25:00,
2013-08-18 23:30:00,73.2,67.7,29.92,NE,49,1.0,2.0,83,0.00,CLR,,0.00,WeatherDisplay:10.37,2013-08-18 21:30:00,
2013-08-18 23:35:00,73.2,67.7,29.92,ENE,68,1.0,2.0,83,0.00,CLR,,0.00,WeatherDisplay:10.37,2013-08-18 21:35:00,
2013-08-18 23:40:00,73.2,67.7,29.92,East,90,1.0,2.0,83,0.00,CLR,,0.00,WeatherDisplay:10.37,2013-08-18 21:40:00,
2013-08-18 23:45:00,73.4,67.9,29.92,East,90,1.0,2.0,83,0.00,CLR,,0.00,WeatherDisplay:10.37,2013-08-18 21:45:00,
2013-08-18 23:50:00,73.4,67.9,29.92,East,90,1.0,2.0,83,0.00,CLR,,0.00,WeatherDisplay:10.37,2013-08-18 21:50:00,
2013-08-18 23:55:00,73.4,67.9,29.92,East,90,1.0,2.0,83,0.00,CLR,,0.00,WeatherDisplay:10.37,2013-08-18 21:55:00,